Time;durP1;ratioP1;P1;durP2;ratioP2;P2;SDS_P1;SDS_P2;PMS_P1;PMS_P2;Temp;Humidity;BMP_temperature;BMP_pressure;BME280_temperature;BME280_humidity;BME280_pressure;Samples;Min_cycle;Max_cycle;Signal;HPM_P1;HPM_P2
2022/02/01 00:03:39;;;;;;;8.82;2.60;;;3.10;72.90;;;;;;4993850;28;20050;-87
2022/02/01 00:08:54;;;;;;;8.40;2.58;;;3.00;73.00;;;;;;4993424;28;20093;-87
2022/02/01 00:37:53;;;;;;;14.15;4.00;;;3.00;73.30;;;;;;4992483;28;20518;-87
2022/02/01 00:40:20;;;;;;;16.20;4.43;;;3.00;73.30;;;;;;4994209;28;20046;-88
2022/02/01 00:42:47;;;;;;;15.05;4.18;;;3.00;73.40;;;;;;4993446;28;20058;-88
2022/02/01 00:45:14;;;;;;;10.40;3.00;;;3.00;73.40;;;;;;4992131;28;20058;-88
2022/02/01 00:47:43;;;;;;;11.27;3.40;;;3.00;73.50;;;;;;4993572;28;20042;-87
2022/02/01 00:50:15;;;;;;;12.55;3.45;;;2.90;73.50;;;;;;4993494;28;20053;-87
2022/02/01 00:52:44;;;;;;;11.32;3.20;;;2.90;73.60;;;;;;4983994;28;20130;-87
2022/02/01 00:55:12;;;;;;;15.52;3.45;;;2.90;73.60;;;;;;4993495;28;20565;-90
2022/02/01 00:57:39;;;;;;;8.73;3.08;;;2.90;73.60;;;;;;4993472;28;20046;-89
2022/02/01 01:00:09;;;;;;;15.73;3.30;;;2.90;73.70;;;;;;4993305;28;20046;-88
2022/02/01 01:02:36;;;;;;;12.35;3.22;;;2.90;73.70;;;;;;4993545;28;20050;-88
2022/02/01 01:05:05;;;;;;;14.50;2.97;;;2.90;73.80;;;;;;4993289;28;20447;-88
2022/02/01 01:07:32;;;;;;;12.93;3.35;;;2.90;73.80;;;;;;4991992;28;20503;-88
2022/02/01 01:10:01;;;;;;;15.07;3.03;;;2.90;73.90;;;;;;4996183;28;20410;-87
2022/02/01 01:12:30;;;;;;;10.32;3.53;;;2.90;73.90;;;;;;4996909;28;20049;-88
2022/02/01 01:45:17;;;;;;;20.83;5.25;;;2.80;75.00;;;;;;4955228;28;20047;-88
2022/02/01 01:53:20;;;;;;;15.90;4.82;;;2.80;75.40;;;;;;4940463;28;20055;-88
2022/02/01 01:55:50;;;;;;;15.45;5.00;;;2.80;75.50;;;;;;4954385;28;20508;-87
2022/02/01 01:58:20;;;;;;;15.07;4.88;;;2.90;75.70;;;;;;4955332;28;20460;-87
2022/02/01 02:03:35;;;;;;;17.15;5.85;;;2.90;75.90;;;;;;4988618;28;20046;-88
2022/02/01 02:06:03;;;;;;;18.00;4.75;;;2.90;76.00;;;;;;4994564;28;20042;-87
2022/02/01 02:08:31;;;;;;;21.88;5.07;;;2.90;76.00;;;;;;4996071;28;20047;-87
2022/02/01 02:11:08;;;;;;;15.73;5.35;;;2.90;76.10;;;;;;4995762;28;20068;-86
2022/02/01 02:16:24;;;;;;;14.32;5.35;;;2.90;76.20;;;;;;4996784;28;20054;-86
2022/02/01 02:18:51;;;;;;;14.73;5.50;;;2.90;76.20;;;;;;4994114;28;20046;-87
2022/02/01 02:21:19;;;;;;;15.85;5.30;;;2.90;76.30;;;;;;4995543;28;20121;-87
2022/02/01 02:23:46;;;;;;;17.17;6.30;;;2.90;76.40;;;;;;4995631;28;20050;-87
2022/02/01 02:26:18;;;;;;;15.23;5.32;;;2.90;76.40;;;;;;4994484;28;20054;-87
2022/02/01 02:28:46;;;;;;;16.40;5.40;;;3.00;76.50;;;;;;4991353;28;20065;-87
2022/02/01 02:31:14;;;;;;;15.18;5.53;;;2.90;76.60;;;;;;4993949;28;20133;-87
2022/02/01 02:33:41;;;;;;;16.70;5.40;;;2.90;76.60;;;;;;4993906;28;20054;-87
2022/02/01 02:36:21;;;;;;;16.17;6.45;;;3.00;76.70;;;;;;4995389;28;20038;-87
2022/02/01 02:46:40;;;;;;;14.80;4.85;;;3.00;76.90;;;;;;4994683;28;20045;-87
2022/02/01 02:49:13;;;;;;;16.40;5.03;;;3.00;77.00;;;;;;4994771;28;20078;-87
2022/02/01 02:51:40;;;;;;;20.70;5.63;;;3.00;77.10;;;;;;4995131;28;20046;-87
2022/02/01 02:54:12;;;;;;;11.85;5.03;;;3.00;77.20;;;;;;4993980;28;20305;-86
2022/02/01 02:56:43;;;;;;;14.57;5.05;;;3.10;77.20;;;;;;4993942;28;20562;-86
2022/02/01 02:59:12;;;;;;;18.27;5.28;;;3.00;77.20;;;;;;4995128;28;20086;-87
2022/02/01 03:01:47;;;;;;;18.63;5.63;;;3.00;77.30;;;;;;4994181;28;20074;-87
2022/02/01 03:04:16;;;;;;;12.18;4.60;;;3.10;77.30;;;;;;4994515;28;20058;-87
2022/02/01 03:06:44;;;;;;;15.95;5.18;;;3.00;77.40;;;;;;4996284;28;20061;-86
2022/02/01 03:09:12;;;;;;;12.80;5.13;;;3.10;77.40;;;;;;4993638;28;20058;-87
2022/02/01 03:11:40;;;;;;;17.85;5.72;;;3.10;77.50;;;;;;4993613;28;20054;-88
2022/02/01 03:16:58;;;;;;;15.18;4.70;;;3.10;77.60;;;;;;4989929;28;20072;-87
2022/02/01 03:22:12;;;;;;;14.00;4.47;;;3.10;77.80;;;;;;4995947;28;20522;-88
2022/02/01 03:24:39;;;;;;;14.60;5.10;;;3.20;77.90;;;;;;4994476;28;20074;-88
2022/02/01 03:27:06;;;;;;;15.00;4.82;;;3.20;78.00;;;;;;4994682;28;20072;-87
2022/02/01 03:29:33;;;;;;;11.55;4.20;;;3.20;78.10;;;;;;4994566;28;20477;-88
2022/02/01 03:32:00;;;;;;;17.40;4.70;;;3.10;78.10;;;;;;4993371;28;20046;-89
2022/02/01 03:34:27;;;;;;;14.88;4.32;;;3.20;78.20;;;;;;4990506;28;20060;-89
2022/02/01 03:36:55;;;;;;;16.90;4.18;;;3.20;78.30;;;;;;4993463;28;20050;-88
2022/02/01 03:39:22;;;;;;;18.60;4.07;;;3.20;78.40;;;;;;4993612;28;20134;-88
2022/02/01 03:41:51;;;;;;;17.65;4.15;;;3.20;78.50;;;;;;4993383;28;20057;-89
2022/02/01 03:44:20;;;;;;;13.88;4.05;;;3.20;78.60;;;;;;4995593;28;20046;-91
2022/02/01 03:47:02;;;;;;;12.77;4.03;;;3.20;78.60;;;;;;4993367;28;20061;-90
2022/02/01 03:49:38;;;;;;;16.60;4.13;;;3.20;78.70;;;;;;4991953;28;20066;-91
2022/02/01 03:52:06;;;;;;;13.73;4.00;;;3.30;78.80;;;;;;4994474;28;20474;-89
2022/02/01 03:54:34;;;;;;;18.08;3.67;;;3.20;78.90;;;;;;4993244;28;20054;-90
2022/02/01 03:57:04;;;;;;;15.75;4.10;;;3.30;79.00;;;;;;4993034;28;20046;-90
2022/02/01 03:59:32;;;;;;;15.82;3.88;;;3.30;79.10;;;;;;4993217;28;20444;-90
2022/02/01 04:02:00;;;;;;;19.77;4.15;;;3.30;79.20;;;;;;4992761;28;20058;-89
2022/02/01 04:04:30;;;;;;;22.85;4.20;;;3.30;79.30;;;;;;4991466;28;20552;-91
2022/02/01 04:06:58;;;;;;;15.35;4.20;;;3.30;79.30;;;;;;4994079;28;20410;-90
2022/02/01 04:09:27;;;;;;;17.35;3.90;;;3.30;79.40;;;;;;4992712;28;20061;-90
2022/02/01 04:11:58;;;;;;;17.02;3.28;;;3.30;79.50;;;;;;4992665;28;20050;-89
2022/02/01 04:14:29;;;;;;;17.33;4.30;;;3.40;79.60;;;;;;4993721;28;20513;-89
2022/02/01 04:16:58;;;;;;;14.07;3.92;;;3.40;79.70;;;;;;4993434;28;20511;-88
2022/02/01 04:19:27;;;;;;;15.57;4.30;;;3.40;79.70;;;;;;4992037;28;20069;-88
2022/02/01 04:22:00;;;;;;;15.95;3.78;;;3.40;79.80;;;;;;4993949;28;20058;-89
2022/02/01 04:24:29;;;;;;;14.35;3.50;;;3.40;79.90;;;;;;4992664;28;20093;-88
2022/02/01 04:26:56;;;;;;;12.32;3.72;;;3.40;80.00;;;;;;4993683;28;20046;-89
2022/02/01 04:29:24;;;;;;;12.82;3.60;;;3.40;80.10;;;;;;4993731;28;20081;-88
2022/02/01 04:31:52;;;;;;;20.48;4.28;;;3.50;80.20;;;;;;4992830;28;20052;-87
2022/02/01 04:34:20;;;;;;;15.50;3.70;;;3.40;80.30;;;;;;4992766;28;20069;-88
2022/02/01 04:36:48;;;;;;;15.38;4.28;;;3.50;80.40;;;;;;4993592;28;20046;-88
2022/02/01 04:39:16;;;;;;;15.15;3.58;;;3.50;80.50;;;;;;4994998;28;20046;-87
2022/02/01 04:41:43;;;;;;;11.63;3.40;;;3.50;80.60;;;;;;4993865;28;20487;-88
2022/02/01 04:44:10;;;;;;;16.67;3.88;;;3.50;80.70;;;;;;4996365;28;20093;-88
2022/02/01 04:46:37;;;;;;;20.77;4.13;;;3.50;80.80;;;;;;4995619;28;20061;-88
2022/02/01 04:49:08;;;;;;;19.55;3.90;;;3.50;80.90;;;;;;4997409;28;20133;-87
2022/02/01 04:51:36;;;;;;;23.10;4.38;;;3.60;81.00;;;;;;4996355;28;20046;-88
2022/02/01 04:54:04;;;;;;;18.95;4.10;;;3.50;81.10;;;;;;4996241;28;20137;-88
2022/02/01 04:56:31;;;;;;;18.95;3.63;;;3.60;81.20;;;;;;4996168;28;20541;-87
2022/02/01 04:58:58;;;;;;;12.93;3.60;;;3.60;81.30;;;;;;4996862;28;20129;-88
2022/02/01 05:01:36;;;;;;;17.13;4.13;;;3.60;81.40;;;;;;4996399;28;20050;-88
2022/02/01 05:04:19;;;;;;;22.85;4.15;;;3.60;81.50;;;;;;4997195;28;20046;-88
2022/02/01 05:06:48;;;;;;;24.60;3.97;;;3.60;81.60;;;;;;4997150;28;20054;-88
2022/02/01 05:09:15;;;;;;;21.42;4.13;;;3.70;81.60;;;;;;4996997;28;20057;-87
2022/02/01 05:11:42;;;;;;;16.63;3.60;;;3.70;81.70;;;;;;4997047;28;20077;-88
2022/02/01 05:16:46;;;;;;;20.55;4.20;;;3.70;81.90;;;;;;4996128;28;20046;-87
2022/02/01 05:19:23;;;;;;;17.55;4.05;;;3.70;82.00;;;;;;4997215;28;20084;-87
2022/02/01 05:21:51;;;;;;;17.58;3.92;;;3.80;82.00;;;;;;4995655;28;20093;-88
2022/02/01 05:24:20;;;;;;;18.67;3.47;;;3.80;82.10;;;;;;4996699;28;20062;-88
2022/02/01 05:26:48;;;;;;;18.83;3.67;;;3.80;82.20;;;;;;4996695;28;20049;-88
2022/02/01 05:29:17;;;;;;;14.05;3.72;;;3.80;82.30;;;;;;4980344;28;20045;-88
2022/02/01 05:31:48;;;;;;;19.63;3.50;;;3.90;82.40;;;;;;4992243;28;20060;-89
2022/02/01 05:34:16;;;;;;;12.52;3.15;;;3.90;82.40;;;;;;4996463;28;20054;-88
2022/02/01 05:36:43;;;;;;;22.52;4.70;;;3.90;82.40;;;;;;4996533;28;20050;-88
2022/02/01 05:39:24;;;;;;;17.73;3.88;;;3.90;82.50;;;;;;4996551;28;20060;-87
2022/02/01 05:41:53;;;;;;;16.77;3.25;;;4.00;82.60;;;;;;4996102;28;20516;-88
2022/02/01 05:44:21;;;;;;;24.77;4.35;;;3.90;82.60;;;;;;4996390;28;20089;-88
2022/02/01 05:46:49;;;;;;;16.75;4.25;;;4.00;82.70;;;;;;4995884;28;20145;-88
2022/02/01 05:49:18;;;;;;;13.65;3.35;;;4.00;82.80;;;;;;4996158;28;20054;-87
2022/02/01 05:51:49;;;;;;;15.77;3.95;;;4.00;82.80;;;;;;4996591;28;20050;-88
2022/02/01 05:54:17;;;;;;;14.93;3.83;;;4.00;82.90;;;;;;4995453;28;20142;-88
2022/02/01 05:56:44;;;;;;;18.08;3.53;;;4.00;82.90;;;;;;4996188;28;20046;-87
2022/02/01 05:59:12;;;;;;;13.60;3.63;;;4.00;83.00;;;;;;4995299;28;20054;-89
2022/02/01 06:01:39;;;;;;;18.30;4.68;;;4.00;83.00;;;;;;4995391;28;20057;-87
2022/02/01 06:04:06;;;;;;;19.10;5.95;;;4.10;83.10;;;;;;4994896;28;20514;-88
2022/02/01 06:06:33;;;;;;;26.10;5.57;;;4.10;83.10;;;;;;4995980;28;20050;-88
2022/02/01 06:09:00;;;;;;;13.05;4.60;;;4.10;83.10;;;;;;4995960;28;20046;-88
2022/02/01 06:11:27;;;;;;;22.10;5.43;;;4.10;83.20;;;;;;4995685;28;20052;-88
2022/02/01 06:13:54;;;;;;;14.13;4.13;;;4.20;83.20;;;;;;4995387;28;20058;-88
2022/02/01 06:16:21;;;;;;;18.52;4.90;;;4.10;83.30;;;;;;4994697;28;20054;-88
2022/02/01 06:18:48;;;;;;;19.90;4.43;;;4.10;83.30;;;;;;4996010;28;20152;-88
2022/02/01 06:21:16;;;;;;;17.80;5.50;;;4.20;83.30;;;;;;4997179;28;20054;-88
2022/02/01 06:23:43;;;;;;;19.15;5.07;;;4.20;83.40;;;;;;4995851;28;20043;-88
2022/02/01 06:26:14;;;;;;;18.50;5.70;;;4.20;83.40;;;;;;4994164;28;20137;-87
2022/02/01 06:28:43;;;;;;;17.00;5.18;;;4.20;83.50;;;;;;4995074;28;20407;-88
2022/02/01 06:31:10;;;;;;;15.82;5.40;;;4.20;83.50;;;;;;4995500;28;20519;-88
2022/02/01 06:33:37;;;;;;;15.15;5.72;;;4.30;83.50;;;;;;4995599;28;20077;-87
2022/02/01 06:36:05;;;;;;;15.95;5.13;;;4.30;83.50;;;;;;4995289;28;20077;-87
2022/02/01 06:38:32;;;;;;;23.13;5.00;;;4.30;83.60;;;;;;4995546;28;20060;-88
2022/02/01 06:40:59;;;;;;;19.10;6.75;;;4.30;83.60;;;;;;4995110;28;20069;-87
2022/02/01 06:43:27;;;;;;;13.68;5.15;;;4.30;83.60;;;;;;4993439;28;20042;-88
2022/02/01 06:45:55;;;;;;;18.80;6.40;;;4.40;83.70;;;;;;4995254;28;20050;-87
2022/02/01 06:48:22;;;;;;;16.75;5.15;;;4.40;83.70;;;;;;4994209;28;20046;-88
2022/02/01 06:50:49;;;;;;;22.30;6.97;;;4.40;83.80;;;;;;4995389;28;20084;-88
2022/02/01 06:53:18;;;;;;;16.63;6.00;;;4.40;83.80;;;;;;4980107;28;20041;-87
2022/02/01 06:55:58;;;;;;;15.10;6.03;;;4.40;83.90;;;;;;4990497;28;20062;-87
2022/02/01 06:58:25;;;;;;;14.50;5.20;;;4.40;83.90;;;;;;4995123;28;20414;-88
2022/02/01 07:00:53;;;;;;;15.50;5.70;;;4.40;83.90;;;;;;4994269;28;20065;-87
2022/02/01 07:03:20;;;;;;;15.23;5.40;;;4.40;84.00;;;;;;4993769;28;20466;-88
2022/02/01 07:05:48;;;;;;;18.90;6.22;;;4.50;84.00;;;;;;4993671;28;20435;-88
2022/02/01 07:08:15;;;;;;;17.00;6.22;;;4.50;84.00;;;;;;4987917;28;20052;-88
2022/02/01 07:10:42;;;;;;;12.70;5.63;;;4.50;84.00;;;;;;4989051;28;20064;-87
2022/02/01 07:13:09;;;;;;;12.57;5.40;;;4.50;84.00;;;;;;4996581;28;20045;-87
2022/02/01 07:15:36;;;;;;;16.63;6.20;;;4.50;84.00;;;;;;4994365;28;20496;-87
2022/02/01 07:18:03;;;;;;;16.17;5.68;;;4.50;84.00;;;;;;4994126;28;20431;-87
2022/02/01 07:20:32;;;;;;;15.95;5.35;;;4.50;84.00;;;;;;4994386;28;20062;-87
2022/02/01 07:23:00;;;;;;;14.73;6.00;;;4.60;84.10;;;;;;4993668;28;20046;-87
2022/02/01 07:25:31;;;;;;;19.38;6.45;;;4.60;84.10;;;;;;4995351;28;20057;-87
2022/02/01 07:28:07;;;;;;;11.43;4.93;;;4.60;84.10;;;;;;4994322;28;20053;-88
2022/02/01 07:30:34;;;;;;;16.40;5.93;;;4.60;84.10;;;;;;4992873;28;20050;-87
2022/02/01 07:33:02;;;;;;;18.58;6.43;;;4.60;84.10;;;;;;4993680;28;20499;-88
2022/02/01 07:35:30;;;;;;;13.75;5.25;;;4.70;84.20;;;;;;4994381;28;20046;-88
2022/02/01 07:38:00;;;;;;;11.68;5.45;;;4.70;84.20;;;;;;4993318;28;20412;-87
2022/02/01 07:40:27;;;;;;;14.25;5.70;;;4.70;84.20;;;;;;4990860;28;20082;-87
2022/02/01 07:42:55;;;;;;;12.43;5.15;;;4.70;84.20;;;;;;4993811;28;20507;-86
2022/02/01 07:45:26;;;;;;;13.25;5.22;;;4.80;84.20;;;;;;4993868;28;20052;-87
2022/02/01 07:47:56;;;;;;;12.52;5.68;;;4.80;84.30;;;;;;4992287;28;20042;-87
2022/02/01 07:50:24;;;;;;;13.40;4.97;;;4.80;84.30;;;;;;4993715;28;20042;-87
2022/02/01 07:52:51;;;;;;;14.75;5.20;;;4.80;84.30;;;;;;4992848;28;20046;-86
2022/02/01 07:55:18;;;;;;;15.23;4.80;;;4.90;84.30;;;;;;4992519;28;20332;-87
2022/02/01 07:57:45;;;;;;;8.82;4.70;;;4.90;84.40;;;;;;4993712;28;20058;-86
2022/02/01 08:00:13;;;;;;;10.18;4.90;;;4.90;84.40;;;;;;4993582;28;20043;-86
2022/02/01 08:02:46;;;;;;;9.50;4.57;;;4.90;84.40;;;;;;4993502;28;20042;-86
2022/02/01 08:05:16;;;;;;;11.65;5.00;;;4.90;84.40;;;;;;4978259;28;20046;-86
2022/02/01 08:07:44;;;;;;;11.93;4.78;;;4.90;84.40;;;;;;4988346;28;20065;-87
2022/02/01 08:10:14;;;;;;;10.88;4.93;;;5.00;84.50;;;;;;4993275;28;20046;-86
2022/02/01 08:18:17;;;;;;;10.02;4.68;;;5.00;84.60;;;;;;4992771;28;20050;-88
2022/02/01 08:20:54;;;;;;;11.27;4.97;;;5.10;84.60;;;;;;4993712;28;20521;-88
2022/02/01 08:23:21;;;;;;;10.98;4.85;;;5.10;84.60;;;;;;4977544;28;20046;-88
2022/02/01 08:25:51;;;;;;;10.32;4.13;;;5.10;84.60;;;;;;4991917;28;20046;-87
2022/02/01 08:28:20;;;;;;;8.15;4.05;;;5.20;84.60;;;;;;4992311;28;20046;-88
2022/02/01 08:30:54;;;;;;;13.90;4.03;;;5.20;84.70;;;;;;4993492;28;20064;-88
2022/02/01 08:33:24;;;;;;;11.00;3.80;;;5.20;84.80;;;;;;4992907;28;20125;-87
2022/02/01 08:35:51;;;;;;;8.32;4.43;;;5.30;84.90;;;;;;4992954;28;20052;-88
2022/02/01 08:38:19;;;;;;;12.20;4.15;;;5.30;85.00;;;;;;4993362;28;20088;-88
2022/02/01 08:40:48;;;;;;;12.13;4.38;;;5.40;85.20;;;;;;4992197;28;20129;-88
2022/02/01 08:43:16;;;;;;;13.23;3.95;;;5.40;85.30;;;;;;4992833;28;20061;-88
2022/02/01 08:45:44;;;;;;;15.07;4.82;;;5.50;85.40;;;;;;4993106;28;20066;-88
2022/02/01 08:48:12;;;;;;;15.88;4.82;;;5.60;85.50;;;;;;4992844;28;20046;-88
2022/02/01 08:50:39;;;;;;;20.00;5.57;;;5.60;85.60;;;;;;4993170;28;20142;-88
2022/02/01 08:53:31;;;;;;;26.25;6.00;;;5.70;85.70;;;;;;4993472;28;20054;-88
2022/02/01 08:58:24;;;;;;;22.88;6.45;;;5.90;85.90;;;;;;4992590;28;20050;-89
2022/02/01 09:00:52;;;;;;;16.65;6.05;;;5.90;85.90;;;;;;4992634;28;20080;-87
2022/02/01 09:03:20;;;;;;;20.42;7.00;;;6.00;86.00;;;;;;4992968;28;20064;-86
2022/02/01 09:05:49;;;;;;;26.02;6.63;;;6.00;86.10;;;;;;4992589;28;20052;-87
2022/02/01 09:08:16;;;;;;;22.23;6.18;;;6.10;86.10;;;;;;4976009;28;20483;-88
2022/02/01 09:10:45;;;;;;;16.60;5.55;;;6.10;86.10;;;;;;4988302;28;20054;-87
2022/02/01 09:13:12;;;;;;;17.35;5.43;;;6.20;86.20;;;;;;4992968;28;20049;-87
2022/02/01 09:15:39;;;;;;;16.52;4.82;;;6.30;86.20;;;;;;4992417;28;20427;-87
2022/02/01 09:18:06;;;;;;;25.80;5.18;;;6.30;86.20;;;;;;4993021;28;20058;-88
2022/02/01 09:20:33;;;;;;;26.73;5.65;;;6.30;86.20;;;;;;4991639;28;20054;-88
2022/02/01 09:23:02;;;;;;;23.83;5.50;;;6.40;86.20;;;;;;4991664;28;20058;-87
2022/02/01 09:25:29;;;;;;;20.63;5.25;;;6.40;86.30;;;;;;4990334;28;20046;-88
2022/02/01 09:27:57;;;;;;;19.52;5.55;;;6.40;86.30;;;;;;4992744;28;20069;-88
2022/02/01 09:30:24;;;;;;;25.02;5.40;;;6.50;86.30;;;;;;4994253;28;20046;-88
2022/02/01 09:32:52;;;;;;;22.42;5.70;;;6.60;86.40;;;;;;4996338;28;20049;-88
2022/02/01 09:35:20;;;;;;;22.17;6.05;;;6.60;86.40;;;;;;4996073;28;20048;-87
2022/02/01 09:37:48;;;;;;;29.33;6.40;;;6.60;86.40;;;;;;4995236;28;20509;-88
2022/02/01 09:40:35;;;;;;;26.30;6.10;;;6.70;86.50;;;;;;4994460;28;20062;-88
2022/02/01 09:43:03;;;;;;;26.40;6.05;;;6.80;86.60;;;;;;4994978;28;20516;-89
2022/02/01 09:45:33;;;;;;;20.88;5.93;;;6.80;86.60;;;;;;4994043;28;20515;-89
2022/02/01 09:48:05;;;;;;;35.70;6.80;;;6.90;86.70;;;;;;4995881;28;20467;-88
2022/02/01 09:50:34;;;;;;;36.78;7.25;;;6.90;86.70;;;;;;4995041;28;20051;-88
2022/02/01 09:53:02;;;;;;;31.17;6.22;;;6.90;86.70;;;;;;4995695;28;20061;-88
2022/02/01 09:55:29;;;;;;;14.68;4.93;;;7.00;86.70;;;;;;4993516;28;20058;-88
2022/02/01 09:57:56;;;;;;;35.80;6.57;;;7.00;86.80;;;;;;4995847;28;20070;-87
2022/02/01 10:00:33;;;;;;;24.23;6.22;;;7.00;86.80;;;;;;4995339;28;20042;-88
2022/02/01 10:03:04;;;;;;;22.42;5.07;;;7.10;86.80;;;;;;4995481;28;20451;-88
2022/02/01 10:05:35;;;;;;;26.60;5.93;;;7.10;86.80;;;;;;4994631;28;20435;-88
2022/02/01 10:08:03;;;;;;;26.42;5.82;;;7.20;86.90;;;;;;4995481;28;20470;-87
2022/02/01 10:10:33;;;;;;;33.72;6.85;;;7.20;86.90;;;;;;4994952;28;20137;-89
2022/02/01 10:13:13;;;;;;;36.25;6.80;;;7.30;86.90;;;;;;4995745;28;20449;-88
2022/02/01 10:15:58;;;;;;;19.38;5.65;;;7.30;86.90;;;;;;4995213;28;20050;-88
2022/02/01 10:18:27;;;;;;;24.67;6.35;;;7.30;86.90;;;;;;4994031;28;20420;-88
2022/02/01 10:20:55;;;;;;;36.55;6.43;;;7.40;86.90;;;;;;4995700;28;20050;-88
2022/02/01 10:23:30;;;;;;;28.42;6.88;;;7.40;87.00;;;;;;4994060;28;20054;-88
2022/02/01 10:26:13;;;;;;;24.98;6.13;;;7.40;87.00;;;;;;4994682;28;20050;-88
2022/02/01 10:29:18;;;;;;;27.05;5.75;;;7.40;87.00;;;;;;4994382;28;20070;-88
2022/02/01 10:37:21;;;;;;;23.13;6.20;;;7.60;87.00;;;;;;4994866;28;20061;-88
2022/02/01 10:39:57;;;;;;;35.67;5.30;;;7.60;87.00;;;;;;4993785;28;20419;-88
2022/02/01 10:42:25;;;;;;;23.95;5.25;;;7.60;87.00;;;;;;4994916;28;20042;-88
2022/02/01 10:44:56;;;;;;;39.67;6.05;;;7.60;87.00;;;;;;4994624;28;20439;-88
2022/02/01 10:47:35;;;;;;;20.10;5.18;;;7.70;87.00;;;;;;4984348;28;20145;-88
2022/02/01 10:50:15;;;;;;;31.13;6.30;;;7.70;87.00;;;;;;4991946;28;20112;-87
2022/02/01 10:52:48;;;;;;;40.90;6.55;;;7.70;86.90;;;;;;4977463;28;20088;-87
2022/02/01 10:55:18;;;;;;;31.92;5.88;;;7.70;86.90;;;;;;4979429;28;20054;-88
2022/02/01 10:57:45;;;;;;;29.48;6.03;;;7.70;86.90;;;;;;4983416;28;20047;-88
2022/02/01 11:00:16;;;;;;;31.15;6.15;;;7.70;86.90;;;;;;4985352;28;20053;-89
2022/02/01 11:02:46;;;;;;;41.15;6.20;;;7.70;86.90;;;;;;4983395;28;20057;-87
2022/02/01 11:05:17;;;;;;;34.67;6.82;;;7.80;86.90;;;;;;4974490;28;20102;-87
2022/02/01 11:08:05;;;;;;;41.97;6.25;;;7.80;86.90;;;;;;4989654;28;20158;-89
2022/02/01 11:10:33;;;;;;;38.08;5.97;;;7.80;86.90;;;;;;4987504;28;20114;-88
2022/02/01 11:13:08;;;;;;;47.67;6.85;;;7.80;86.90;;;;;;4991126;28;20050;-87
2022/02/01 11:15:36;;;;;;;32.80;5.53;;;7.80;86.90;;;;;;4982600;28;20102;-88
2022/02/01 11:18:12;;;;;;;33.65;5.45;;;7.90;86.90;;;;;;4978499;28;20042;-88
2022/02/01 11:20:39;;;;;;;39.83;6.45;;;7.90;86.90;;;;;;4976239;28;20049;-88
2022/02/01 11:23:12;;;;;;;39.30;5.72;;;7.90;86.90;;;;;;4989350;28;20058;-87
2022/02/01 11:25:45;;;;;;;64.43;7.97;;;7.90;86.90;;;;;;4978149;28;20047;-87
2022/02/01 11:28:59;;;;;;;31.17;5.45;;;7.90;86.90;;;;;;4973467;28;20051;-87
2022/02/01 11:31:30;;;;;;;34.93;6.07;;;7.90;86.90;;;;;;4986502;28;20423;-87
2022/02/01 11:33:59;;;;;;;25.85;5.38;;;8.00;86.90;;;;;;4972485;28;20051;-87
2022/02/01 11:36:38;;;;;;;41.35;5.75;;;8.00;86.90;;;;;;4977837;28;20515;-87
2022/02/01 11:39:15;;;;;;;35.88;5.43;;;8.00;86.90;;;;;;4975811;28;20061;-87
2022/02/01 11:41:43;;;;;;;37.35;6.72;;;8.00;86.90;;;;;;4977210;28;20058;-87
2022/02/01 11:44:21;;;;;;;35.88;6.05;;;8.10;86.90;;;;;;4974168;28;20129;-88
2022/02/01 11:47:02;;;;;;;28.05;6.15;;;8.10;86.90;;;;;;5001155;28;20054;-87
2022/02/01 11:49:30;;;;;;;31.58;5.78;;;8.20;87.00;;;;;;4990144;28;20404;-86
2022/02/01 11:52:07;;;;;;;25.52;5.25;;;8.20;87.00;;;;;;4978753;28;20050;-87
2022/02/01 11:54:34;;;;;;;28.38;5.63;;;8.20;87.00;;;;;;4980835;28;20101;-87
2022/02/01 11:57:13;;;;;;;24.15;5.13;;;8.30;87.00;;;;;;4986930;28;20108;-86
2022/02/01 12:00:03;;;;;;;26.20;5.05;;;8.40;87.00;;;;;;4976233;28;20049;-87
2022/02/01 12:02:41;;;;;;;26.40;4.72;;;8.40;87.00;;;;;;4980589;28;20048;-86
2022/02/01 12:05:30;;;;;;;23.83;4.75;;;8.50;87.00;;;;;;4987988;28;20078;-87
2022/02/01 12:08:11;;;;;;;20.65;4.32;;;8.50;86.90;;;;;;4988198;28;20108;-85
2022/02/01 12:10:48;;;;;;;19.10;4.13;;;8.60;86.80;;;;;;4977630;28;20047;-86
2022/02/01 12:13:20;;;;;;;20.75;4.18;;;8.60;86.80;;;;;;4972125;28;20050;-86
2022/02/01 12:15:48;;;;;;;23.13;3.83;;;8.70;86.70;;;;;;4977265;28;20054;-85
2022/02/01 12:18:43;;;;;;;20.67;4.10;;;8.70;86.70;;;;;;4978123;28;20053;-86
2022/02/01 12:21:35;;;;;;;21.73;4.75;;;8.70;86.60;;;;;;4984921;28;20042;-86
2022/02/01 12:24:04;;;;;;;20.10;4.28;;;8.80;86.50;;;;;;4974627;28;20042;-88
2022/02/01 12:26:42;;;;;;;20.42;3.95;;;8.90;86.50;;;;;;4974931;28;20054;-88
2022/02/01 12:29:11;;;;;;;17.88;3.58;;;8.80;86.40;;;;;;4973049;28;20055;-88
2022/02/01 12:31:40;;;;;;;17.58;4.85;;;8.80;86.30;;;;;;4977335;28;20051;-87
2022/02/01 12:34:12;;;;;;;18.65;4.25;;;8.90;86.20;;;;;;4975809;28;20477;-88
2022/02/01 12:36:42;;;;;;;27.02;4.32;;;8.90;86.10;;;;;;4985452;28;20491;-87
2022/02/01 12:39:16;;;;;;;21.58;4.22;;;8.90;86.00;;;;;;4985566;28;20050;-87
2022/02/01 12:41:44;;;;;;;18.35;4.07;;;8.90;85.90;;;;;;4976686;28;20050;-87
2022/02/01 12:46:47;;;;;;;17.45;3.97;;;9.00;85.80;;;;;;4977123;28;20051;-88
2022/02/01 12:49:42;;;;;;;20.10;4.63;;;9.00;85.70;;;;;;4976881;28;20051;-87
2022/02/01 12:52:30;;;;;;;18.98;4.25;;;9.00;85.60;;;;;;4976716;28;20055;-86
2022/02/01 12:55:11;;;;;;;19.73;3.90;;;9.00;85.60;;;;;;4977190;28;20061;-87
2022/02/01 12:58:04;;;;;;;19.02;4.10;;;9.00;85.50;;;;;;4976382;28;20058;-86
2022/02/01 13:00:32;;;;;;;20.52;4.85;;;9.00;85.50;;;;;;4976906;28;20075;-86
2022/02/01 13:03:02;;;;;;;27.10;5.13;;;9.00;85.40;;;;;;4982734;28;20064;-86
2022/02/01 13:05:30;;;;;;;18.48;4.20;;;9.10;85.40;;;;;;4977989;28;20038;-86
2022/02/01 13:21:36;;;;;;;31.83;5.47;;;9.20;85.30;;;;;;4983226;28;20060;-88
2022/02/01 13:24:04;;;;;;;24.52;5.15;;;9.20;85.30;;;;;;4989255;28;20062;-86
2022/02/01 13:26:48;;;;;;;24.95;5.80;;;9.20;85.30;;;;;;4980111;28;20101;-87
2022/02/01 13:29:17;;;;;;;20.75;4.88;;;9.20;85.30;;;;;;4976134;28;20046;-86
2022/02/01 13:31:51;;;;;;;17.85;3.92;;;9.30;85.20;;;;;;4991665;28;20046;-86
2022/02/01 13:34:32;;;;;;;21.77;4.82;;;9.20;85.20;;;;;;4989956;28;20149;-86
2022/02/01 13:37:02;;;;;;;23.55;5.30;;;9.30;85.20;;;;;;4981782;28;20054;-86
2022/02/01 13:39:40;;;;;;;20.13;4.95;;;9.30;85.20;;;;;;4987387;28;20049;-88
2022/02/01 13:42:10;;;;;;;19.05;4.32;;;9.40;85.30;;;;;;4987876;28;20174;-88
2022/02/01 13:45:00;;;;;;;23.45;4.80;;;9.40;85.30;;;;;;4989760;28;20495;-88
2022/02/01 13:47:42;;;;;;;16.10;4.30;;;9.40;85.30;;;;;;4977428;28;20053;-87
2022/02/01 13:50:20;;;;;;;18.55;4.45;;;9.40;85.30;;;;;;4991223;28;20046;-86
2022/02/01 13:52:59;;;;;;;23.38;4.80;;;9.50;85.30;;;;;;4991173;28;20051;-88
2022/02/01 13:55:29;;;;;;;18.48;4.53;;;9.50;85.20;;;;;;4978545;28;20054;-88
2022/02/01 13:58:16;;;;;;;16.58;5.38;;;9.60;85.20;;;;;;4979439;28;20062;-87
2022/02/01 14:00:49;;;;;;;11.65;3.95;;;9.60;85.10;;;;;;4984363;28;20050;-87
2022/02/01 14:06:07;;;;;;;18.38;4.10;;;9.70;84.90;;;;;;4974621;28;20049;-87
2022/02/01 14:08:45;;;;;;;27.92;5.07;;;9.70;84.90;;;;;;4977744;28;20063;-87
2022/02/01 14:35:08;;;;;;;23.63;5.15;;;9.90;84.20;;;;;;4981960;28;20065;-86
2022/02/01 14:45:31;;;;;;;19.30;4.85;;;10.00;84.00;;;;;;4965838;28;20047;-87
2022/02/01 14:47:58;;;;;;;17.55;4.75;;;9.90;83.90;;;;;;4960352;28;20518;-86
2022/02/01 14:50:25;;;;;;;19.15;4.45;;;9.90;83.90;;;;;;4957639;28;20042;-86
2022/02/01 14:52:52;;;;;;;16.17;4.05;;;10.00;83.90;;;;;;4971790;28;20051;-87
2022/02/01 14:55:22;;;;;;;19.13;4.55;;;10.00;83.90;;;;;;4971429;28;20046;-87
2022/02/01 15:06:58;;;;;;;19.13;4.70;;;10.00;83.70;;;;;;4971406;28;20154;-86
2022/02/01 15:14:44;;;;;;;19.58;4.53;;;10.00;83.60;;;;;;4873462;29;20418;-89
2022/02/01 15:17:14;;;;;;;19.48;4.72;;;10.00;83.60;;;;;;4859931;29;20053;-88
2022/02/01 15:19:42;;;;;;;21.95;4.55;;;10.00;83.60;;;;;;4870918;29;20057;-87
2022/02/01 15:22:09;;;;;;;16.25;4.72;;;10.00;83.50;;;;;;4894135;29;20060;-88
2022/02/01 15:24:43;;;;;;;23.42;4.85;;;10.10;83.50;;;;;;4887882;29;20060;-88
2022/02/01 15:27:10;;;;;;;21.25;4.65;;;10.10;83.40;;;;;;4883205;29;20092;-88
2022/02/01 15:29:37;;;;;;;21.98;5.38;;;10.10;83.40;;;;;;4882558;29;20059;-87
2022/02/01 15:32:04;;;;;;;19.52;4.78;;;10.10;83.40;;;;;;4894484;29;20044;-87
2022/02/01 15:34:51;;;;;;;19.10;4.22;;;10.10;83.30;;;;;;4876952;29;20053;-88
2022/02/01 15:37:23;;;;;;;16.70;4.43;;;10.00;83.20;;;;;;4894198;29;20054;-86
2022/02/01 15:59:03;;;;;;;22.25;4.38;;;10.00;83.10;;;;;;4948653;29;20069;-87
2022/02/01 16:01:52;;;;;;;20.90;5.00;;;9.90;83.10;;;;;;4939025;29;20152;-87
2022/02/01 16:04:36;;;;;;;;;;;9.90;83.10;;;;;;4938737;29;20059;-87
2022/02/01 16:07:07;;;;;;;24.95;5.45;;;9.90;83.20;;;;;;4939562;29;19923;-87
2022/02/01 16:12:08;;;;;;;21.08;5.18;;;9.90;83.20;;;;;;4948514;29;20054;-87
2022/02/01 16:14:35;;;;;;;24.90;4.97;;;9.90;83.20;;;;;;4934977;29;20061;-88
2022/02/01 16:17:02;;;;;;;15.98;4.35;;;9.90;83.20;;;;;;4935405;29;20527;-88